sensor_id;sensor_type;location;lat;lon;timestamp;pressure;altitude;pressure_sealevel;temperature;humidity
72465;BME280;60471;52.150;4.508;2023-07-20T00:01:27;101245.34;;;18.49;70.71
72465;BME280;60471;52.150;4.508;2023-07-20T00:03:53;101251.88;;;18.45;71.27
72465;BME280;60471;52.150;4.508;2023-07-20T00:06:26;101241.66;;;18.39;71.49
72465;BME280;60471;52.150;4.508;2023-07-20T00:08:56;101241.59;;;18.28;71.63
72465;BME280;60471;52.150;4.508;2023-07-20T00:11:25;101245.28;;;18.14;72.11
72465;BME280;60471;52.150;4.508;2023-07-20T00:13:53;101237.88;;;18.17;71.71
72465;BME280;60471;52.150;4.508;2023-07-20T00:16:19;101236.63;;;18.10;72.15
72465;BME280;60471;52.150;4.508;2023-07-20T00:18:46;101242.31;;;18.06;72.70
72465;BME280;60471;52.150;4.508;2023-07-20T00:21:12;101245.09;;;18.04;72.39
72465;BME280;60471;52.150;4.508;2023-07-20T00:23:38;101246.81;;;18.05;72.62
72465;BME280;60471;52.150;4.508;2023-07-20T00:26:05;101239.63;;;18.06;72.95
72465;BME280;60471;52.150;4.508;2023-07-20T00:28:31;101249.47;;;18.05;72.83
72465;BME280;60471;52.150;4.508;2023-07-20T00:30:59;101255.19;;;18.12;73.38
72465;BME280;60471;52.150;4.508;2023-07-20T00:33:26;101254.34;;;18.24;73.11
72465;BME280;60471;52.150;4.508;2023-07-20T00:36:01;101249.50;;;18.29;72.73
72465;BME280;60471;52.150;4.508;2023-07-20T00:38:28;101242.03;;;18.21;72.64
72465;BME280;60471;52.150;4.508;2023-07-20T00:40:54;101241.66;;;18.15;72.92
72465;BME280;60471;52.150;4.508;2023-07-20T00:43:20;101243.22;;;18.17;73.11
72465;BME280;60471;52.150;4.508;2023-07-20T00:45:46;101240.25;;;18.09;72.84
72465;BME280;60471;52.150;4.508;2023-07-20T00:48:14;101236.75;;;18.09;72.80
72465;BME280;60471;52.150;4.508;2023-07-20T00:50:41;101232.28;;;17.96;72.94
72465;BME280;60471;52.150;4.508;2023-07-20T00:53:08;101235.22;;;17.81;73.56
72465;BME280;60471;52.150;4.508;2023-07-20T00:55:34;101231.72;;;17.80;73.98
72465;BME280;60471;52.150;4.508;2023-07-20T00:58:01;101236.75;;;17.72;74.27
72465;BME280;60471;52.150;4.508;2023-07-20T01:00:28;101232.03;;;17.76;74.66
72465;BME280;60471;52.150;4.508;2023-07-20T01:02:54;101238.44;;;17.73;74.77
72465;BME280;60471;52.150;4.508;2023-07-20T01:05:21;101240.38;;;17.71;74.66
72465;BME280;60471;52.150;4.508;2023-07-20T01:08:03;101233.09;;;17.73;74.79
72465;BME280;60471;52.150;4.508;2023-07-20T01:10:40;101245.81;;;17.70;74.61
72465;BME280;60471;52.150;4.508;2023-07-20T01:13:17;101239.19;;;17.75;74.85
72465;BME280;60471;52.150;4.508;2023-07-20T01:15:57;101243.00;;;17.84;74.40
72465;BME280;60471;52.150;4.508;2023-07-20T01:18:26;101241.81;;;17.88;74.55
72465;BME280;60471;52.150;4.508;2023-07-20T01:21:04;101249.41;;;17.94;73.90
72465;BME280;60471;52.150;4.508;2023-07-20T01:32:09;101256.69;;;18.16;73.18
72465;BME280;60471;52.150;4.508;2023-07-20T01:34:37;101259.81;;;18.10;73.21
72465;BME280;60471;52.150;4.508;2023-07-20T01:37:06;101263.31;;;18.10;73.36
72465;BME280;60471;52.150;4.508;2023-07-20T01:39:34;101259.25;;;18.17;73.16
72465;BME280;60471;52.150;4.508;2023-07-20T01:42:02;101257.00;;;18.24;72.73
72465;BME280;60471;52.150;4.508;2023-07-20T01:44:28;101256.34;;;18.20;72.86
72465;BME280;60471;52.150;4.508;2023-07-20T01:46:55;101250.38;;;18.17;72.83
72465;BME280;60471;52.150;4.508;2023-07-20T01:49:21;101244.09;;;18.18;72.73
72465;BME280;60471;52.150;4.508;2023-07-20T01:52:25;101250.47;;;18.28;72.48
72465;BME280;60471;52.150;4.508;2023-07-20T01:55:10;101248.09;;;18.36;72.08
72465;BME280;60471;52.150;4.508;2023-07-20T01:57:36;101257.56;;;18.40;71.34
72465;BME280;60471;52.150;4.508;2023-07-20T02:00:04;101254.16;;;18.38;71.63
72465;BME280;60471;52.150;4.508;2023-07-20T02:02:30;101253.63;;;18.33;71.70
72465;BME280;60471;52.150;4.508;2023-07-20T02:04:57;101259.56;;;18.25;71.71
72465;BME280;60471;52.150;4.508;2023-07-20T02:07:23;101256.41;;;18.32;71.96
72465;BME280;60471;52.150;4.508;2023-07-20T02:09:49;101259.44;;;18.27;71.60
72465;BME280;60471;52.150;4.508;2023-07-20T02:12:15;101254.22;;;18.25;71.35
72465;BME280;60471;52.150;4.508;2023-07-20T02:14:42;101251.66;;;18.24;71.56
72465;BME280;60471;52.150;4.508;2023-07-20T02:17:08;101253.91;;;18.17;71.46
72465;BME280;60471;52.150;4.508;2023-07-20T02:19:37;101249.34;;;18.07;71.97
72465;BME280;60471;52.150;4.508;2023-07-20T02:22:03;101255.97;;;18.01;72.48
72465;BME280;60471;52.150;4.508;2023-07-20T02:24:30;101249.06;;;17.99;72.67
72465;BME280;60471;52.150;4.508;2023-07-20T02:26:56;101264.41;;;18.08;72.58
72465;BME280;60471;52.150;4.508;2023-07-20T02:29:23;101253.97;;;18.05;72.38
72465;BME280;60471;52.150;4.508;2023-07-20T02:31:49;101252.25;;;18.04;72.37
72465;BME280;60471;52.150;4.508;2023-07-20T02:34:15;101252.25;;;18.04;72.52
72465;BME280;60471;52.150;4.508;2023-07-20T02:36:41;101252.25;;;18.04;72.56
72465;BME280;60471;52.150;4.508;2023-07-20T02:39:08;101253.41;;;18.00;72.10
72465;BME280;60471;52.150;4.508;2023-07-20T02:41:35;101258.56;;;18.03;72.19
72465;BME280;60471;52.150;4.508;2023-07-20T02:44:01;101260.28;;;18.04;71.79
72465;BME280;60471;52.150;4.508;2023-07-20T02:46:29;101252.47;;;18.01;71.80
72465;BME280;60471;52.150;4.508;2023-07-20T02:48:56;101250.56;;;18.03;71.54
72465;BME280;60471;52.150;4.508;2023-07-20T02:51:22;101257.41;;;17.94;72.06
72465;BME280;60471;52.150;4.508;2023-07-20T02:53:48;101248.75;;;17.90;72.06
72465;BME280;60471;52.150;4.508;2023-07-20T02:56:14;101244.59;;;17.86;72.27
72465;BME280;60471;52.150;4.508;2023-07-20T02:58:41;101248.78;;;17.78;72.40
72465;BME280;60471;52.150;4.508;2023-07-20T03:01:09;101252.88;;;17.71;72.29
72465;BME280;60471;52.150;4.508;2023-07-20T03:03:36;101252.94;;;17.69;72.67
72465;BME280;60471;52.150;4.508;2023-07-20T03:06:05;101260.75;;;17.72;72.75
72465;BME280;60471;52.150;4.508;2023-07-20T03:08:33;101261.25;;;17.64;72.51
72465;BME280;60471;52.150;4.508;2023-07-20T03:10:59;101265.00;;;17.62;72.44
72465;BME280;60471;52.150;4.508;2023-07-20T03:13:26;101265.97;;;17.61;72.55
72465;BME280;60471;52.150;4.508;2023-07-20T03:15:53;101268.19;;;17.54;73.14
72465;BME280;60471;52.150;4.508;2023-07-20T03:18:21;101275.34;;;17.54;72.98
72465;BME280;60471;52.150;4.508;2023-07-20T03:20:48;101279.22;;;17.50;73.21
72465;BME280;60471;52.150;4.508;2023-07-20T03:23:20;101273.44;;;17.56;73.20
72465;BME280;60471;52.150;4.508;2023-07-20T03:25:48;101270.66;;;17.57;73.16
72465;BME280;60471;52.150;4.508;2023-07-20T03:28:15;101281.88;;;17.50;73.62
72465;BME280;60471;52.150;4.508;2023-07-20T03:30:42;101291.69;;;17.49;73.90
72465;BME280;60471;52.150;4.508;2023-07-20T03:33:08;101290.75;;;17.37;73.36
72465;BME280;60471;52.150;4.508;2023-07-20T03:35:35;101280.91;;;17.38;73.78
72465;BME280;60471;52.150;4.508;2023-07-20T03:38:04;101284.22;;;17.29;73.55
72465;BME280;60471;52.150;4.508;2023-07-20T03:40:30;101288.38;;;17.20;74.36
72465;BME280;60471;52.150;4.508;2023-07-20T03:42:57;101287.75;;;17.29;73.86
72465;BME280;60471;52.150;4.508;2023-07-20T03:45:23;101291.16;;;17.44;72.26
72465;BME280;60471;52.150;4.508;2023-07-20T03:47:50;101298.28;;;17.56;72.86
72465;BME280;60471;52.150;4.508;2023-07-20T03:50:16;101285.84;;;17.70;71.86
72465;BME280;60471;52.150;4.508;2023-07-20T03:52:42;101290.19;;;17.58;71.96
72465;BME280;60471;52.150;4.508;2023-07-20T03:55:09;101286.25;;;17.51;72.27
72465;BME280;60471;52.150;4.508;2023-07-20T03:57:36;101299.16;;;17.57;73.30
72465;BME280;60471;52.150;4.508;2023-07-20T04:00:04;101290.31;;;17.69;73.22
72465;BME280;60471;52.150;4.508;2023-07-20T04:02:33;101290.63;;;17.64;72.81
72465;BME280;60471;52.150;4.508;2023-07-20T04:05:00;101297.78;;;17.51;73.60
72465;BME280;60471;52.150;4.508;2023-07-20T04:07:26;101307.47;;;17.65;73.80
72465;BME280;60471;52.150;4.508;2023-07-20T04:09:52;101291.28;;;17.81;73.46
72465;BME280;60471;52.150;4.508;2023-07-20T04:12:18;101296.41;;;17.84;73.03
72465;BME280;60471;52.150;4.508;2023-07-20T04:14:44;101300.13;;;17.94;73.15
72465;BME280;60471;52.150;4.508;2023-07-20T04:17:11;101294.03;;;18.05;72.76
72465;BME280;60471;52.150;4.508;2023-07-20T04:19:39;101291.34;;;18.05;73.18
72465;BME280;60471;52.150;4.508;2023-07-20T04:22:05;101292.78;;;18.21;73.02
72465;BME280;60471;52.150;4.508;2023-07-20T04:24:31;101292.97;;;18.31;72.22
72465;BME280;60471;52.150;4.508;2023-07-20T04:26:57;101291.03;;;18.33;72.07
72465;BME280;60471;52.150;4.508;2023-07-20T04:29:24;101291.38;;;18.29;72.01
72465;BME280;60471;52.150;4.508;2023-07-20T04:31:50;101294.09;;;18.16;70.99
72465;BME280;60471;52.150;4.508;2023-07-20T04:34:16;101302.34;;;18.13;72.29
72465;BME280;60471;52.150;4.508;2023-07-20T04:36:43;101300.97;;;18.31;72.00
72465;BME280;60471;52.150;4.508;2023-07-20T04:39:10;101306.69;;;18.50;71.13
72465;BME280;60471;52.150;4.508;2023-07-20T04:41:36;101308.94;;;18.57;70.28
72465;BME280;60471;52.150;4.508;2023-07-20T04:44:03;101309.63;;;18.71;70.29
72465;BME280;60471;52.150;4.508;2023-07-20T04:46:30;101310.41;;;18.85;69.64
72465;BME280;60471;52.150;4.508;2023-07-20T04:48:56;101314.59;;;18.89;69.31
72465;BME280;60471;52.150;4.508;2023-07-20T04:51:27;101316.41;;;18.99;68.71
72465;BME280;60471;52.150;4.508;2023-07-20T04:53:56;101320.09;;;19.09;68.60
72465;BME280;60471;52.150;4.508;2023-07-20T04:56:22;101316.25;;;19.14;67.99
72465;BME280;60471;52.150;4.508;2023-07-20T04:58:51;101313.94;;;19.20;68.09
72465;BME280;60471;52.150;4.508;2023-07-20T05:01:17;101313.59;;;19.25;67.21
72465;BME280;60471;52.150;4.508;2023-07-20T05:03:43;101312.47;;;19.16;67.26
72465;BME280;60471;52.150;4.508;2023-07-20T05:06:10;101317.19;;;19.01;67.26
72465;BME280;60471;52.150;4.508;2023-07-20T05:08:58;101312.44;;;19.05;67.20
72465;BME280;60471;52.150;4.508;2023-07-20T05:11:33;101318.28;;;19.10;66.03
72465;BME280;60471;52.150;4.508;2023-07-20T05:14:29;101308.41;;;18.99;65.57
72465;BME280;60471;52.150;4.508;2023-07-20T05:16:55;101311.72;;;19.03;65.07
72465;BME280;60471;52.150;4.508;2023-07-20T05:19:21;101316.16;;;18.91;64.73
72465;BME280;60471;52.150;4.508;2023-07-20T05:21:47;101307.16;;;18.92;63.99
72465;BME280;60471;52.150;4.508;2023-07-20T05:24:13;101308.84;;;18.82;63.34
72465;BME280;60471;52.150;4.508;2023-07-20T05:26:40;101313.09;;;18.85;63.60
72465;BME280;60471;52.150;4.508;2023-07-20T05:29:06;101313.09;;;18.85;62.84
72465;BME280;60471;52.150;4.508;2023-07-20T05:31:32;101315.72;;;18.73;62.55
72465;BME280;60471;52.150;4.508;2023-07-20T05:33:58;101312.72;;;18.78;62.51
72465;BME280;60471;52.150;4.508;2023-07-20T05:36:25;101318.16;;;18.76;62.73
72465;BME280;60471;52.150;4.508;2023-07-20T05:38:51;101313.56;;;18.78;61.98
72465;BME280;60471;52.150;4.508;2023-07-20T05:41:18;101313.22;;;18.83;62.05
72465;BME280;60471;52.150;4.508;2023-07-20T05:43:44;101318.72;;;18.93;61.78
72465;BME280;60471;52.150;4.508;2023-07-20T05:46:10;101326.06;;;19.02;61.75
72465;BME280;60471;52.150;4.508;2023-07-20T05:48:36;101319.94;;;18.89;61.09
72465;BME280;60471;52.150;4.508;2023-07-20T05:51:03;101319.72;;;19.03;61.12
72465;BME280;60471;52.150;4.508;2023-07-20T05:53:29;101322.56;;;19.13;60.90
72465;BME280;60471;52.150;4.508;2023-07-20T05:55:55;101316.97;;;19.16;60.36
72465;BME280;60471;52.150;4.508;2023-07-20T05:58:21;101319.00;;;19.01;59.51
72465;BME280;60471;52.150;4.508;2023-07-20T06:00:49;101316.13;;;19.15;59.70
72465;BME280;60471;52.150;4.508;2023-07-20T06:03:16;101313.72;;;19.23;59.73
72465;BME280;60471;52.150;4.508;2023-07-20T06:05:43;101312.34;;;19.18;58.86
72465;BME280;60471;52.150;4.508;2023-07-20T06:11:55;101310.19;;;19.23;58.89
72465;BME280;60471;52.150;4.508;2023-07-20T06:15:31;101312.06;;;19.33;59.01
72465;BME280;60471;52.150;4.508;2023-07-20T06:17:58;101318.28;;;19.45;58.78
72465;BME280;60471;52.150;4.508;2023-07-20T06:20:24;101320.81;;;19.35;57.99
72465;BME280;60471;52.150;4.508;2023-07-20T06:22:51;101319.47;;;19.41;58.06
72465;BME280;60471;52.150;4.508;2023-07-20T06:25:17;101316.81;;;19.52;57.68
72465;BME280;60471;52.150;4.508;2023-07-20T06:27:44;101320.47;;;19.51;57.52
72465;BME280;60471;52.150;4.508;2023-07-20T06:30:10;101321.47;;;19.61;57.10
72465;BME280;60471;52.150;4.508;2023-07-20T06:32:38;101321.88;;;19.68;57.33
72465;BME280;60471;52.150;4.508;2023-07-20T06:35:05;101328.06;;;19.68;57.68
72465;BME280;60471;52.150;4.508;2023-07-20T06:37:32;101330.16;;;19.98;57.43
72465;BME280;60471;52.150;4.508;2023-07-20T06:39:58;101329.66;;;20.16;56.52
72465;BME280;60471;52.150;4.508;2023-07-20T06:42:25;101329.78;;;20.14;55.94
72465;BME280;60471;52.150;4.508;2023-07-20T06:44:51;101338.91;;;20.12;56.16
72465;BME280;60471;52.150;4.508;2023-07-20T06:47:17;101338.91;;;20.12;56.02
72465;BME280;60471;52.150;4.508;2023-07-20T06:49:43;101334.78;;;20.19;56.29
72465;BME280;60471;52.150;4.508;2023-07-20T06:52:10;101331.19;;;20.30;55.03
72465;BME280;60471;52.150;4.508;2023-07-20T06:54:36;101325.97;;;20.28;54.95
72465;BME280;60471;52.150;4.508;2023-07-20T06:57:02;101330.47;;;20.39;55.31
72465;BME280;60471;52.150;4.508;2023-07-20T06:59:29;101326.56;;;20.65;54.07
72465;BME280;60471;52.150;4.508;2023-07-20T07:01:55;101330.38;;;20.83;54.32
72465;BME280;60471;52.150;4.508;2023-07-20T07:04:21;101331.56;;;20.91;53.96
72465;BME280;60471;52.150;4.508;2023-07-20T07:06:48;101340.38;;;21.13;53.33
72465;BME280;60471;52.150;4.508;2023-07-20T07:09:14;101330.31;;;21.48;52.96
72465;BME280;60471;52.150;4.508;2023-07-20T07:11:40;101340.97;;;21.80;52.44
72465;BME280;60471;52.150;4.508;2023-07-20T07:14:06;101333.31;;;22.06;51.26
72465;BME280;60471;52.150;4.508;2023-07-20T07:16:33;101338.38;;;22.30;48.69
72465;BME280;60471;52.150;4.508;2023-07-20T07:18:59;101332.50;;;22.55;48.68
72465;BME280;60471;52.150;4.508;2023-07-20T07:21:25;101337.88;;;22.65;47.17
72465;BME280;60471;52.150;4.508;2023-07-20T07:23:51;101331.16;;;22.99;46.27
72465;BME280;60471;52.150;4.508;2023-07-20T07:26:20;101342.75;;;22.80;47.33
72465;BME280;60471;52.150;4.508;2023-07-20T07:28:47;101338.81;;;23.13;47.42
72465;BME280;60471;52.150;4.508;2023-07-20T07:31:13;101335.56;;;22.91;46.25
72465;BME280;60471;52.150;4.508;2023-07-20T07:33:40;101338.50;;;22.18;48.06
72465;BME280;60471;52.150;4.508;2023-07-20T07:36:07;101346.34;;;21.80;49.79
72465;BME280;60471;52.150;4.508;2023-07-20T07:38:33;101352.53;;;21.29;51.94
72465;BME280;60471;52.150;4.508;2023-07-20T07:40:59;101347.66;;;20.59;53.22
72465;BME280;60471;52.150;4.508;2023-07-20T07:43:25;101354.00;;;20.46;54.89
72465;BME280;60471;52.150;4.508;2023-07-20T07:45:54;101353.88;;;20.14;55.75
72465;BME280;60471;52.150;4.508;2023-07-20T07:48:21;101350.75;;;19.98;56.46
72465;BME280;60471;52.150;4.508;2023-07-20T07:50:48;101351.25;;;19.46;57.58
72465;BME280;60471;52.150;4.508;2023-07-20T07:53:15;101349.97;;;19.27;59.08
72465;BME280;60471;52.150;4.508;2023-07-20T07:55:42;101352.75;;;19.26;59.24
72465;BME280;60471;52.150;4.508;2023-07-20T07:58:08;101351.13;;;19.47;58.60
72465;BME280;60471;52.150;4.508;2023-07-20T08:00:34;101347.66;;;19.69;57.81
72465;BME280;60471;52.150;4.508;2023-07-20T08:03:00;101352.31;;;19.78;57.89
72465;BME280;60471;52.150;4.508;2023-07-20T08:05:27;101357.03;;;19.97;57.00
72465;BME280;60471;52.150;4.508;2023-07-20T08:07:53;101352.31;;;20.01;55.81
72465;BME280;60471;52.150;4.508;2023-07-20T08:10:19;101362.19;;;20.00;53.94
72465;BME280;60471;52.150;4.508;2023-07-20T08:12:45;101355.69;;;20.36;53.53
72465;BME280;60471;52.150;4.508;2023-07-20T08:15:12;101360.28;;;21.11;51.80
72465;BME280;60471;52.150;4.508;2023-07-20T08:17:41;101357.88;;;21.70;50.24
72465;BME280;60471;52.150;4.508;2023-07-20T08:20:09;101351.81;;;22.30;47.59
72465;BME280;60471;52.150;4.508;2023-07-20T08:22:39;101345.88;;;23.05;45.54
72465;BME280;60471;52.150;4.508;2023-07-20T08:25:06;101347.59;;;23.25;43.72
72465;BME280;60471;52.150;4.508;2023-07-20T08:27:33;101345.28;;;23.30;43.87
72465;BME280;60471;52.150;4.508;2023-07-20T08:29:59;101338.06;;;23.31;42.78
72465;BME280;60471;52.150;4.508;2023-07-20T08:32:26;101342.56;;;22.63;44.35
72465;BME280;60471;52.150;4.508;2023-07-20T08:34:52;101343.44;;;22.73;45.33
72465;BME280;60471;52.150;4.508;2023-07-20T08:37:19;101343.97;;;22.47;45.00
72465;BME280;60471;52.150;4.508;2023-07-20T08:39:45;101342.78;;;22.31;46.37
72465;BME280;60471;52.150;4.508;2023-07-20T08:42:12;101345.22;;;22.43;46.32
72465;BME280;60471;52.150;4.508;2023-07-20T08:44:41;101344.28;;;22.73;45.19
72465;BME280;60471;52.150;4.508;2023-07-20T08:47:12;101362.00;;;22.26;44.92
72465;BME280;60471;52.150;4.508;2023-07-20T08:49:41;101353.78;;;21.66;46.40
72465;BME280;60471;52.150;4.508;2023-07-20T08:52:08;101352.06;;;21.65;46.70
72465;BME280;60471;52.150;4.508;2023-07-20T08:54:36;101351.50;;;21.09;47.80
72465;BME280;60471;52.150;4.508;2023-07-20T08:57:04;101358.94;;;21.05;47.25
72465;BME280;60471;52.150;4.508;2023-07-20T08:59:32;101350.56;;;21.73;46.58
72465;BME280;60471;52.150;4.508;2023-07-20T09:02:00;101348.69;;;22.15;45.43
72465;BME280;60471;52.150;4.508;2023-07-20T09:04:28;101348.28;;;22.29;44.47
72465;BME280;60471;52.150;4.508;2023-07-20T09:06:55;101339.91;;;22.22;45.11
72465;BME280;60471;52.150;4.508;2023-07-20T09:09:23;101342.47;;;22.83;42.95
72465;BME280;60471;52.150;4.508;2023-07-20T09:11:49;101350.31;;;22.46;43.85
72465;BME280;60471;52.150;4.508;2023-07-20T09:14:17;101350.41;;;22.95;42.21
72465;BME280;60471;52.150;4.508;2023-07-20T09:16:47;101342.34;;;22.95;43.57
72465;BME280;60471;52.150;4.508;2023-07-20T09:19:16;101341.19;;;23.26;41.56
72465;BME280;60471;52.150;4.508;2023-07-20T09:21:46;101339.19;;;22.70;42.52
72465;BME280;60471;52.150;4.508;2023-07-20T09:24:20;101341.47;;;23.33;42.30
72465;BME280;60471;52.150;4.508;2023-07-20T09:26:47;101342.28;;;23.62;41.81
72465;BME280;60471;52.150;4.508;2023-07-20T09:29:17;101348.47;;;23.82;40.03
72465;BME280;60471;52.150;4.508;2023-07-20T09:32:04;101340.16;;;23.66;40.49
72465;BME280;60471;52.150;4.508;2023-07-20T09:34:34;101337.28;;;24.14;40.82
72465;BME280;60471;52.150;4.508;2023-07-20T09:37:00;101345.91;;;24.55;39.22
72465;BME280;60471;52.150;4.508;2023-07-20T09:39:27;101336.75;;;24.38;38.71
72465;BME280;60471;52.150;4.508;2023-07-20T09:41:53;101340.44;;;23.43;41.10
72465;BME280;60471;52.150;4.508;2023-07-20T09:44:20;101339.47;;;23.45;40.54
72465;BME280;60471;52.150;4.508;2023-07-20T09:46:47;101333.91;;;23.65;39.86
72465;BME280;60471;52.150;4.508;2023-07-20T09:49:14;101344.84;;;24.38;38.36
72465;BME280;60471;52.150;4.508;2023-07-20T09:51:47;101334.66;;;24.77;38.09
72465;BME280;60471;52.150;4.508;2023-07-20T09:54:13;101340.09;;;24.50;39.31
72465;BME280;60471;52.150;4.508;2023-07-20T09:56:42;101332.69;;;24.24;40.77
72465;BME280;60471;52.150;4.508;2023-07-20T09:59:09;101332.84;;;24.50;39.82
72465;BME280;60471;52.150;4.508;2023-07-20T10:01:36;101331.88;;;24.69;38.56
72465;BME280;60471;52.150;4.508;2023-07-20T10:04:07;101327.06;;;24.45;39.64
72465;BME280;60471;52.150;4.508;2023-07-20T10:06:39;101333.22;;;24.38;40.00
72465;BME280;60471;52.150;4.508;2023-07-20T10:09:10;101333.69;;;24.51;40.88
72465;BME280;60471;52.150;4.508;2023-07-20T10:11:45;101333.44;;;24.90;40.59
72465;BME280;60471;52.150;4.508;2023-07-20T10:14:20;101329.69;;;25.44;40.08
72465;BME280;60471;52.150;4.508;2023-07-20T10:16:54;101338.78;;;25.87;38.43
72465;BME280;60471;52.150;4.508;2023-07-20T10:19:37;101336.44;;;26.34;37.89
72465;BME280;60471;52.150;4.508;2023-07-20T10:22:14;101336.09;;;25.69;38.93
72465;BME280;60471;52.150;4.508;2023-07-20T10:24:46;101337.81;;;25.26;38.71
72465;BME280;60471;52.150;4.508;2023-07-20T10:27:14;101340.41;;;25.10;40.49
72465;BME280;60471;52.150;4.508;2023-07-20T10:29:41;101338.41;;;25.38;38.28
72465;BME280;60471;52.150;4.508;2023-07-20T10:32:09;101331.97;;;25.57;37.76
72465;BME280;60471;52.150;4.508;2023-07-20T10:34:35;101344.03;;;25.88;37.17
72465;BME280;60471;52.150;4.508;2023-07-20T10:37:02;101336.31;;;25.50;37.53
72465;BME280;60471;52.150;4.508;2023-07-20T10:39:31;101341.38;;;24.91;38.63
72465;BME280;60471;52.150;4.508;2023-07-20T10:42:03;101334.00;;;25.11;38.23
72465;BME280;60471;52.150;4.508;2023-07-20T10:44:34;101331.59;;;25.52;37.79
72465;BME280;60471;52.150;4.508;2023-07-20T10:47:08;101327.84;;;25.70;37.46
72465;BME280;60471;52.150;4.508;2023-07-20T10:49:59;101320.66;;;26.21;36.47
72465;BME280;60471;52.150;4.508;2023-07-20T10:52:37;101322.50;;;26.55;37.12
72465;BME280;60471;52.150;4.508;2023-07-20T10:55:14;101318.63;;;28.89;32.34
72465;BME280;60471;52.150;4.508;2023-07-20T10:57:40;101317.59;;;30.75;29.01
72465;BME280;60471;52.150;4.508;2023-07-20T11:00:13;101317.72;;;32.42;25.78
72465;BME280;60471;52.150;4.508;2023-07-20T11:02:47;101312.38;;;32.20;26.35
72465;BME280;60471;52.150;4.508;2023-07-20T11:05:34;101313.22;;;31.80;26.91
72465;BME280;60471;52.150;4.508;2023-07-20T11:08:04;101322.53;;;31.92;26.65
72465;BME280;60471;52.150;4.508;2023-07-20T11:10:32;101304.13;;;33.74;23.43
72465;BME280;60471;52.150;4.508;2023-07-20T11:13:17;101307.94;;;32.74;25.38
72465;BME280;60471;52.150;4.508;2023-07-20T11:16:02;101307.06;;;33.92;23.84
72465;BME280;60471;52.150;4.508;2023-07-20T11:18:33;101305.47;;;31.83;26.42
72465;BME280;60471;52.150;4.508;2023-07-20T11:21:07;101301.28;;;32.28;26.07
72465;BME280;60471;52.150;4.508;2023-07-20T11:23:37;101296.78;;;32.08;25.99
72465;BME280;60471;52.150;4.508;2023-07-20T11:26:04;101294.53;;;33.38;24.74
72465;BME280;60471;52.150;4.508;2023-07-20T11:28:31;101301.28;;;33.23;24.97
72465;BME280;60471;52.150;4.508;2023-07-20T11:30:57;101303.53;;;32.79;24.50
72465;BME280;60471;52.150;4.508;2023-07-20T11:33:23;101292.41;;;32.94;24.69
72465;BME280;60471;52.150;4.508;2023-07-20T11:35:50;101295.78;;;33.42;24.10
72465;BME280;60471;52.150;4.508;2023-07-20T11:38:17;101284.56;;;31.69;26.01
72465;BME280;60471;52.150;4.508;2023-07-20T11:40:46;101293.94;;;31.88;26.64
72465;BME280;60471;52.150;4.508;2023-07-20T11:43:13;101283.81;;;32.91;25.58
72465;BME280;60471;52.150;4.508;2023-07-20T11:45:40;101290.81;;;32.45;26.39
72465;BME280;60471;52.150;4.508;2023-07-20T11:48:06;101279.38;;;31.39;26.99
72465;BME280;60471;52.150;4.508;2023-07-20T11:50:38;101280.97;;;31.62;26.46
72465;BME280;60471;52.150;4.508;2023-07-20T11:53:06;101294.59;;;32.44;24.97
72465;BME280;60471;52.150;4.508;2023-07-20T11:55:33;101286.03;;;32.54;26.03
72465;BME280;60471;52.150;4.508;2023-07-20T11:58:07;101280.78;;;32.46;25.56
72465;BME280;60471;52.150;4.508;2023-07-20T12:00:36;101276.66;;;32.90;24.45
72465;BME280;60471;52.150;4.508;2023-07-20T12:03:05;101288.47;;;31.88;25.26
72465;BME280;60471;52.150;4.508;2023-07-20T12:05:33;101279.94;;;31.97;26.28
72465;BME280;60471;52.150;4.508;2023-07-20T12:08:00;101283.13;;;32.08;26.09
72465;BME280;60471;52.150;4.508;2023-07-20T12:10:27;101278.25;;;31.96;26.70
72465;BME280;60471;52.150;4.508;2023-07-20T12:12:54;101283.28;;;32.54;25.42
72465;BME280;60471;52.150;4.508;2023-07-20T12:15:27;101280.75;;;32.39;24.85
72465;BME280;60471;52.150;4.508;2023-07-20T12:17:57;101277.91;;;33.27;23.85
72465;BME280;60471;52.150;4.508;2023-07-20T12:20:29;101284.94;;;32.42;24.72
72465;BME280;60471;52.150;4.508;2023-07-20T12:23:12;101277.91;;;32.94;23.67
72465;BME280;60471;52.150;4.508;2023-07-20T12:25:42;101274.84;;;31.88;27.78
72465;BME280;60471;52.150;4.508;2023-07-20T12:28:09;101277.44;;;32.09;25.05
72465;BME280;60471;52.150;4.508;2023-07-20T12:30:38;101274.88;;;31.94;25.94
72465;BME280;60471;52.150;4.508;2023-07-20T12:33:04;101273.59;;;31.56;27.14
72465;BME280;60471;52.150;4.508;2023-07-20T12:35:32;101271.38;;;33.34;24.73
72465;BME280;60471;52.150;4.508;2023-07-20T12:37:58;101270.28;;;32.63;25.98
72465;BME280;60471;52.150;4.508;2023-07-20T12:40:25;101277.25;;;32.78;25.08
72465;BME280;60471;52.150;4.508;2023-07-20T12:42:51;101276.78;;;32.62;24.24
72465;BME280;60471;52.150;4.508;2023-07-20T12:45:17;101276.88;;;32.20;24.97
72465;BME280;60471;52.150;4.508;2023-07-20T12:47:44;101267.41;;;32.91;24.80
72465;BME280;60471;52.150;4.508;2023-07-20T12:50:11;101272.66;;;33.38;24.36
72465;BME280;60471;52.150;4.508;2023-07-20T12:52:38;101271.19;;;33.36;24.32
72465;BME280;60471;52.150;4.508;2023-07-20T12:55:07;101264.81;;;33.62;23.67
72465;BME280;60471;52.150;4.508;2023-07-20T12:57:35;101260.31;;;34.70;22.50
72465;BME280;60471;52.150;4.508;2023-07-20T13:00:03;101260.25;;;34.52;22.55
72465;BME280;60471;52.150;4.508;2023-07-20T13:02:32;101253.31;;;35.49;21.95
72465;BME280;60471;52.150;4.508;2023-07-20T13:04:58;101258.44;;;35.21;21.35
72465;BME280;60471;52.150;4.508;2023-07-20T13:07:33;101259.09;;;33.77;23.80
72465;BME280;60471;52.150;4.508;2023-07-20T13:10:01;101264.03;;;31.38;26.32